sensor_id;sensor_type;location;lat;lon;timestamp;P1;durP1;ratioP1;P2;durP2;ratioP2
19080;SDS011;9673;50.868;3.152;2023-09-12T00:01:45;37.97;;;20.30;;
19080;SDS011;9673;50.868;3.152;2023-09-12T00:04:53;42.07;;;20.60;;
19080;SDS011;9673;50.868;3.152;2023-09-12T00:08:00;41.60;;;19.87;;
19080;SDS011;9673;50.868;3.152;2023-09-12T00:11:08;42.00;;;21.13;;
19080;SDS011;9673;50.868;3.152;2023-09-12T00:14:18;42.33;;;21.57;;
19080;SDS011;9673;50.868;3.152;2023-09-12T00:17:26;43.03;;;20.40;;
19080;SDS011;9673;50.868;3.152;2023-09-12T00:20:33;34.07;;;19.60;;
19080;SDS011;9673;50.868;3.152;2023-09-12T00:23:41;39.27;;;19.30;;
19080;SDS011;9673;50.868;3.152;2023-09-12T00:26:48;41.57;;;20.30;;
19080;SDS011;9673;50.868;3.152;2023-09-12T00:29:57;46.27;;;22.43;;
19080;SDS011;9673;50.868;3.152;2023-09-12T00:33:04;47.33;;;21.97;;
19080;SDS011;9673;50.868;3.152;2023-09-12T01:00:34;44.77;;;21.67;;
19080;SDS011;9673;50.868;3.152;2023-09-12T01:03:42;49.07;;;21.70;;
19080;SDS011;9673;50.868;3.152;2023-09-12T01:06:49;42.47;;;21.47;;
19080;SDS011;9673;50.868;3.152;2023-09-12T01:09:58;51.47;;;22.77;;
19080;SDS011;9673;50.868;3.152;2023-09-12T01:13:05;47.30;;;22.33;;
19080;SDS011;9673;50.868;3.152;2023-09-12T01:16:16;51.13;;;21.30;;
19080;SDS011;9673;50.868;3.152;2023-09-12T01:19:23;43.77;;;23.30;;
19080;SDS011;9673;50.868;3.152;2023-09-12T01:22:36;47.13;;;21.47;;
19080;SDS011;9673;50.868;3.152;2023-09-12T01:26:03;46.20;;;23.23;;
19080;SDS011;9673;50.868;3.152;2023-09-12T01:29:37;51.20;;;24.17;;
19080;SDS011;9673;50.868;3.152;2023-09-12T01:32:47;62.70;;;25.80;;
19080;SDS011;9673;50.868;3.152;2023-09-12T01:35:55;53.03;;;25.83;;
19080;SDS011;9673;50.868;3.152;2023-09-12T01:46:41;57.43;;;26.13;;
19080;SDS011;9673;50.868;3.152;2023-09-12T01:49:51;49.73;;;25.53;;
19080;SDS011;9673;50.868;3.152;2023-09-12T01:53:02;51.90;;;24.80;;
19080;SDS011;9673;50.868;3.152;2023-09-12T01:56:09;50.70;;;25.03;;
19080;SDS011;9673;50.868;3.152;2023-09-12T01:59:18;52.57;;;25.23;;
19080;SDS011;9673;50.868;3.152;2023-09-12T02:02:27;52.77;;;23.97;;
19080;SDS011;9673;50.868;3.152;2023-09-12T02:05:35;50.17;;;24.73;;
19080;SDS011;9673;50.868;3.152;2023-09-12T02:08:43;53.17;;;24.90;;
19080;SDS011;9673;50.868;3.152;2023-09-12T02:11:51;51.40;;;24.03;;
19080;SDS011;9673;50.868;3.152;2023-09-12T02:14:59;54.27;;;25.57;;
19080;SDS011;9673;50.868;3.152;2023-09-12T02:18:07;53.07;;;25.30;;
19080;SDS011;9673;50.868;3.152;2023-09-12T02:21:14;58.00;;;27.23;;
19080;SDS011;9673;50.868;3.152;2023-09-12T02:24:21;57.37;;;26.93;;
19080;SDS011;9673;50.868;3.152;2023-09-12T02:27:28;55.80;;;25.43;;
19080;SDS011;9673;50.868;3.152;2023-09-12T02:30:37;64.93;;;27.00;;
19080;SDS011;9673;50.868;3.152;2023-09-12T02:33:48;56.93;;;26.27;;
19080;SDS011;9673;50.868;3.152;2023-09-12T02:36:55;49.07;;;25.10;;
19080;SDS011;9673;50.868;3.152;2023-09-12T02:40:02;63.53;;;27.60;;
19080;SDS011;9673;50.868;3.152;2023-09-12T02:43:10;49.30;;;24.47;;
19080;SDS011;9673;50.868;3.152;2023-09-12T02:46:18;56.80;;;25.73;;
19080;SDS011;9673;50.868;3.152;2023-09-12T02:49:27;50.53;;;23.83;;
19080;SDS011;9673;50.868;3.152;2023-09-12T02:52:34;47.33;;;24.20;;
19080;SDS011;9673;50.868;3.152;2023-09-12T02:55:41;48.67;;;25.10;;
19080;SDS011;9673;50.868;3.152;2023-09-12T02:58:48;47.20;;;23.70;;
19080;SDS011;9673;50.868;3.152;2023-09-12T03:01:55;47.20;;;23.50;;
19080;SDS011;9673;50.868;3.152;2023-09-12T03:05:03;49.00;;;24.33;;
19080;SDS011;9673;50.868;3.152;2023-09-12T03:08:10;44.93;;;25.00;;
19080;SDS011;9673;50.868;3.152;2023-09-12T03:12:11;49.00;;;24.10;;
19080;SDS011;9673;50.868;3.152;2023-09-12T03:15:22;47.07;;;23.93;;
19080;SDS011;9673;50.868;3.152;2023-09-12T03:18:29;50.50;;;23.43;;
19080;SDS011;9673;50.868;3.152;2023-09-12T03:21:41;49.23;;;24.13;;
19080;SDS011;9673;50.868;3.152;2023-09-12T03:24:49;54.53;;;25.00;;
19080;SDS011;9673;50.868;3.152;2023-09-12T03:28:07;46.03;;;24.20;;
19080;SDS011;9673;50.868;3.152;2023-09-12T03:31:15;57.20;;;24.93;;
19080;SDS011;9673;50.868;3.152;2023-09-12T03:34:23;49.57;;;23.97;;
19080;SDS011;9673;50.868;3.152;2023-09-12T03:37:32;69.33;;;26.63;;
19080;SDS011;9673;50.868;3.152;2023-09-12T03:40:39;56.53;;;26.57;;
19080;SDS011;9673;50.868;3.152;2023-09-12T03:43:47;57.70;;;27.10;;
19080;SDS011;9673;50.868;3.152;2023-09-12T03:46:54;51.87;;;23.43;;
19080;SDS011;9673;50.868;3.152;2023-09-12T03:50:03;49.90;;;25.73;;
19080;SDS011;9673;50.868;3.152;2023-09-12T03:53:14;56.70;;;25.27;;
19080;SDS011;9673;50.868;3.152;2023-09-12T03:56:22;51.27;;;24.97;;
19080;SDS011;9673;50.868;3.152;2023-09-12T03:59:29;56.17;;;25.30;;
19080;SDS011;9673;50.868;3.152;2023-09-12T04:02:36;57.93;;;25.67;;
19080;SDS011;9673;50.868;3.152;2023-09-12T04:05:45;53.70;;;24.83;;
19080;SDS011;9673;50.868;3.152;2023-09-12T04:08:53;46.47;;;22.80;;
19080;SDS011;9673;50.868;3.152;2023-09-12T04:12:00;52.73;;;25.97;;
19080;SDS011;9673;50.868;3.152;2023-09-12T04:15:08;51.70;;;24.93;;
19080;SDS011;9673;50.868;3.152;2023-09-12T04:18:16;52.87;;;24.63;;
19080;SDS011;9673;50.868;3.152;2023-09-12T04:21:22;56.50;;;24.23;;
19080;SDS011;9673;50.868;3.152;2023-09-12T04:24:31;55.17;;;22.97;;
19080;SDS011;9673;50.868;3.152;2023-09-12T04:27:38;52.53;;;25.47;;
19080;SDS011;9673;50.868;3.152;2023-09-12T04:30:47;53.57;;;24.53;;
19080;SDS011;9673;50.868;3.152;2023-09-12T04:33:54;46.03;;;23.47;;
19080;SDS011;9673;50.868;3.152;2023-09-12T04:37:01;54.57;;;24.93;;
19080;SDS011;9673;50.868;3.152;2023-09-12T04:40:13;47.93;;;23.30;;
19080;SDS011;9673;50.868;3.152;2023-09-12T04:43:21;56.80;;;25.77;;
19080;SDS011;9673;50.868;3.152;2023-09-12T04:46:28;53.17;;;23.97;;
19080;SDS011;9673;50.868;3.152;2023-09-12T04:49:35;47.13;;;24.53;;
19080;SDS011;9673;50.868;3.152;2023-09-12T04:52:42;48.03;;;22.57;;
19080;SDS011;9673;50.868;3.152;2023-09-12T04:55:50;49.13;;;22.50;;
19080;SDS011;9673;50.868;3.152;2023-09-12T04:58:59;42.03;;;20.97;;
19080;SDS011;9673;50.868;3.152;2023-09-12T05:02:07;48.70;;;21.07;;
19080;SDS011;9673;50.868;3.152;2023-09-12T05:05:14;46.80;;;21.67;;
19080;SDS011;9673;50.868;3.152;2023-09-12T05:08:22;44.53;;;21.73;;
19080;SDS011;9673;50.868;3.152;2023-09-12T05:11:32;54.40;;;23.57;;
19080;SDS011;9673;50.868;3.152;2023-09-12T05:14:39;43.40;;;19.43;;
